sensor_id;sensor_type;location;lat;lon;timestamp;P1;durP1;ratioP1;P2;durP2;ratioP2
1949;SDS011;975;48.760;9.152;2022-12-07T00:02:43;8.38;;;5.00;;
1949;SDS011;975;48.760;9.152;2022-12-07T00:05:31;9.48;;;3.92;;
1949;SDS011;975;48.760;9.152;2022-12-07T00:08:20;8.05;;;4.28;;
1949;SDS011;975;48.760;9.152;2022-12-07T00:11:09;8.27;;;4.63;;
1949;SDS011;975;48.760;9.152;2022-12-07T00:13:57;8.75;;;4.75;;
1949;SDS011;975;48.760;9.152;2022-12-07T00:16:45;8.77;;;4.32;;
1949;SDS011;975;48.760;9.152;2022-12-07T00:19:35;8.25;;;4.13;;
1949;SDS011;975;48.760;9.152;2022-12-07T00:22:23;9.15;;;4.43;;
1949;SDS011;975;48.760;9.152;2022-12-07T00:25:12;8.63;;;4.25;;
1949;SDS011;975;48.760;9.152;2022-12-07T00:28:00;11.27;;;4.95;;
1949;SDS011;975;48.760;9.152;2022-12-07T00:30:48;8.93;;;5.05;;
1949;SDS011;975;48.760;9.152;2022-12-07T00:33:36;10.10;;;5.00;;
1949;SDS011;975;48.760;9.152;2022-12-07T00:36:24;9.15;;;4.68;;
1949;SDS011;975;48.760;9.152;2022-12-07T00:39:12;11.23;;;5.38;;
1949;SDS011;975;48.760;9.152;2022-12-07T00:42:01;8.02;;;4.50;;
1949;SDS011;975;48.760;9.152;2022-12-07T00:44:49;11.02;;;4.63;;
1949;SDS011;975;48.760;9.152;2022-12-07T00:47:36;10.18;;;4.93;;
1949;SDS011;975;48.760;9.152;2022-12-07T00:50:24;10.50;;;4.90;;
1949;SDS011;975;48.760;9.152;2022-12-07T00:53:12;12.10;;;5.20;;
1949;SDS011;975;48.760;9.152;2022-12-07T00:56:04;9.88;;;4.90;;
1949;SDS011;975;48.760;9.152;2022-12-07T00:58:54;11.85;;;5.47;;
1949;SDS011;975;48.760;9.152;2022-12-07T01:01:42;11.02;;;5.72;;
1949;SDS011;975;48.760;9.152;2022-12-07T01:04:30;11.48;;;5.75;;
1949;SDS011;975;48.760;9.152;2022-12-07T01:07:17;10.43;;;5.18;;
1949;SDS011;975;48.760;9.152;2022-12-07T01:10:06;11.15;;;5.57;;
1949;SDS011;975;48.760;9.152;2022-12-07T01:12:54;11.98;;;5.90;;
1949;SDS011;975;48.760;9.152;2022-12-07T01:15:43;12.93;;;6.13;;
1949;SDS011;975;48.760;9.152;2022-12-07T01:18:33;12.65;;;5.47;;
1949;SDS011;975;48.760;9.152;2022-12-07T01:21:23;11.73;;;5.40;;
1949;SDS011;975;48.760;9.152;2022-12-07T01:24:11;13.30;;;5.82;;
1949;SDS011;975;48.760;9.152;2022-12-07T01:26:59;11.07;;;5.43;;
1949;SDS011;975;48.760;9.152;2022-12-07T01:29:47;10.70;;;5.50;;
1949;SDS011;975;48.760;9.152;2022-12-07T01:32:36;12.85;;;5.18;;
1949;SDS011;975;48.760;9.152;2022-12-07T01:35:24;12.52;;;5.88;;
1949;SDS011;975;48.760;9.152;2022-12-07T01:38:11;11.65;;;6.05;;
1949;SDS011;975;48.760;9.152;2022-12-07T01:41:00;16.58;;;5.60;;
1949;SDS011;975;48.760;9.152;2022-12-07T01:47:09;13.70;;;5.93;;
1949;SDS011;975;48.760;9.152;2022-12-07T01:49:58;14.68;;;6.07;;
1949;SDS011;975;48.760;9.152;2022-12-07T01:52:45;10.77;;;5.80;;
1949;SDS011;975;48.760;9.152;2022-12-07T01:55:37;14.02;;;5.78;;
1949;SDS011;975;48.760;9.152;2022-12-07T01:58:26;12.77;;;5.60;;
1949;SDS011;975;48.760;9.152;2022-12-07T02:01:13;12.27;;;6.30;;
1949;SDS011;975;48.760;9.152;2022-12-07T02:04:01;11.82;;;5.55;;
1949;SDS011;975;48.760;9.152;2022-12-07T02:06:50;12.35;;;6.22;;
1949;SDS011;975;48.760;9.152;2022-12-07T02:09:38;12.65;;;5.95;;
1949;SDS011;975;48.760;9.152;2022-12-07T02:12:26;13.10;;;5.68;;
1949;SDS011;975;48.760;9.152;2022-12-07T02:15:14;11.95;;;5.85;;
1949;SDS011;975;48.760;9.152;2022-12-07T02:18:04;12.60;;;5.70;;
1949;SDS011;975;48.760;9.152;2022-12-07T02:20:56;13.00;;;5.22;;
1949;SDS011;975;48.760;9.152;2022-12-07T02:23:55;15.02;;;6.00;;
1949;SDS011;975;48.760;9.152;2022-12-07T02:29:37;13.90;;;5.72;;
1949;SDS011;975;48.760;9.152;2022-12-07T02:32:28;11.02;;;5.03;;
1949;SDS011;975;48.760;9.152;2022-12-07T02:35:22;13.25;;;5.32;;
1949;SDS011;975;48.760;9.152;2022-12-07T02:38:13;11.05;;;5.30;;
1949;SDS011;975;48.760;9.152;2022-12-07T02:41:03;10.88;;;5.72;;
1949;SDS011;975;48.760;9.152;2022-12-07T02:43:53;12.65;;;5.60;;
1949;SDS011;975;48.760;9.152;2022-12-07T02:46:44;14.43;;;6.25;;
1949;SDS011;975;48.760;9.152;2022-12-07T02:49:34;11.05;;;5.75;;
1949;SDS011;975;48.760;9.152;2022-12-07T02:52:23;10.77;;;4.57;;
1949;SDS011;975;48.760;9.152;2022-12-07T02:55:11;10.25;;;5.30;;
1949;SDS011;975;48.760;9.152;2022-12-07T02:58:13;10.55;;;4.88;;
1949;SDS011;975;48.760;9.152;2022-12-07T03:01:05;11.57;;;5.38;;
1949;SDS011;975;48.760;9.152;2022-12-07T03:03:58;11.82;;;5.10;;
1949;SDS011;975;48.760;9.152;2022-12-07T03:06:49;11.60;;;5.47;;
1949;SDS011;975;48.760;9.152;2022-12-07T03:12:27;11.57;;;4.90;;
1949;SDS011;975;48.760;9.152;2022-12-07T03:15:18;12.65;;;5.50;;
1949;SDS011;975;48.760;9.152;2022-12-07T03:18:07;10.30;;;5.40;;
1949;SDS011;975;48.760;9.152;2022-12-07T03:20:58;11.43;;;4.78;;
1949;SDS011;975;48.760;9.152;2022-12-07T03:23:48;10.00;;;4.90;;
1949;SDS011;975;48.760;9.152;2022-12-07T03:26:38;11.63;;;5.85;;
1949;SDS011;975;48.760;9.152;2022-12-07T03:29:29;11.60;;;5.60;;
1949;SDS011;975;48.760;9.152;2022-12-07T03:32:19;11.95;;;5.38;;
1949;SDS011;975;48.760;9.152;2022-12-07T03:35:09;10.25;;;5.13;;
1949;SDS011;975;48.760;9.152;2022-12-07T03:38:04;11.38;;;5.47;;
1949;SDS011;975;48.760;9.152;2022-12-07T03:40:57;12.18;;;5.97;;
1949;SDS011;975;48.760;9.152;2022-12-07T03:43:47;12.65;;;5.38;;
1949;SDS011;975;48.760;9.152;2022-12-07T03:46:36;14.55;;;5.93;;
1949;SDS011;975;48.760;9.152;2022-12-07T03:49:27;11.57;;;5.70;;
1949;SDS011;975;48.760;9.152;2022-12-07T03:52:20;13.85;;;4.82;;
1949;SDS011;975;48.760;9.152;2022-12-07T03:55:14;9.80;;;5.03;;
1949;SDS011;975;48.760;9.152;2022-12-07T03:58:03;10.82;;;5.72;;
1949;SDS011;975;48.760;9.152;2022-12-07T04:00:51;10.93;;;5.60;;
1949;SDS011;975;48.760;9.152;2022-12-07T04:03:39;13.20;;;5.78;;
1949;SDS011;975;48.760;9.152;2022-12-07T04:06:27;13.23;;;5.45;;
1949;SDS011;975;48.760;9.152;2022-12-07T04:09:14;11.45;;;4.97;;
1949;SDS011;975;48.760;9.152;2022-12-07T04:12:04;11.27;;;5.10;;
1949;SDS011;975;48.760;9.152;2022-12-07T04:14:52;12.00;;;5.80;;
1949;SDS011;975;48.760;9.152;2022-12-07T04:17:39;11.18;;;5.32;;
1949;SDS011;975;48.760;9.152;2022-12-07T04:20:27;11.02;;;4.82;;
1949;SDS011;975;48.760;9.152;2022-12-07T04:23:15;14.02;;;5.93;;
1949;SDS011;975;48.760;9.152;2022-12-07T04:26:03;13.55;;;5.38;;
1949;SDS011;975;48.760;9.152;2022-12-07T04:28:52;11.43;;;5.18;;
1949;SDS011;975;48.760;9.152;2022-12-07T04:31:40;15.40;;;5.85;;
1949;SDS011;975;48.760;9.152;2022-12-07T04:34:28;12.50;;;5.35;;
1949;SDS011;975;48.760;9.152;2022-12-07T04:37:15;12.50;;;5.43;;
1949;SDS011;975;48.760;9.152;2022-12-07T04:40:04;10.75;;;5.03;;
1949;SDS011;975;48.760;9.152;2022-12-07T04:42:52;11.63;;;5.55;;
1949;SDS011;975;48.760;9.152;2022-12-07T04:45:46;13.18;;;5.65;;
1949;SDS011;975;48.760;9.152;2022-12-07T04:48:33;10.27;;;5.20;;
1949;SDS011;975;48.760;9.152;2022-12-07T04:51:23;12.70;;;5.63;;
1949;SDS011;975;48.760;9.152;2022-12-07T04:54:11;9.80;;;4.78;;
1949;SDS011;975;48.760;9.152;2022-12-07T04:56:59;11.10;;;5.15;;
1949;SDS011;975;48.760;9.152;2022-12-07T04:59:47;13.55;;;4.82;;
1949;SDS011;975;48.760;9.152;2022-12-07T05:02:36;10.20;;;4.47;;
1949;SDS011;975;48.760;9.152;2022-12-07T05:05:23;11.40;;;4.93;;
1949;SDS011;975;48.760;9.152;2022-12-07T05:08:11;9.65;;;4.82;;
1949;SDS011;975;48.760;9.152;2022-12-07T05:10:59;10.10;;;5.20;;
1949;SDS011;975;48.760;9.152;2022-12-07T05:13:47;9.20;;;4.43;;
1949;SDS011;975;48.760;9.152;2022-12-07T05:16:35;9.80;;;4.53;;
1949;SDS011;975;48.760;9.152;2022-12-07T05:19:24;9.43;;;4.32;;
1949;SDS011;975;48.760;9.152;2022-12-07T05:22:12;8.95;;;4.18;;
1949;SDS011;975;48.760;9.152;2022-12-07T05:25:01;6.55;;;3.38;;
1949;SDS011;975;48.760;9.152;2022-12-07T05:27:48;6.88;;;3.25;;
1949;SDS011;975;48.760;9.152;2022-12-07T05:30:36;7.75;;;3.83;;
1949;SDS011;975;48.760;9.152;2022-12-07T05:33:24;8.10;;;3.92;;
1949;SDS011;975;48.760;9.152;2022-12-07T05:36:13;8.18;;;3.72;;
1949;SDS011;975;48.760;9.152;2022-12-07T05:39:01;5.15;;;2.88;;
1949;SDS011;975;48.760;9.152;2022-12-07T05:41:48;6.85;;;2.80;;
1949;SDS011;975;48.760;9.152;2022-12-07T05:44:54;5.47;;;2.92;;
1949;SDS011;975;48.760;9.152;2022-12-07T05:47:42;7.15;;;2.97;;
1949;SDS011;975;48.760;9.152;2022-12-07T05:50:29;6.85;;;3.10;;
1949;SDS011;975;48.760;9.152;2022-12-07T05:53:19;7.65;;;4.03;;
1949;SDS011;975;48.760;9.152;2022-12-07T05:56:06;8.13;;;3.70;;
1949;SDS011;975;48.760;9.152;2022-12-07T05:58:54;7.88;;;3.58;;
1949;SDS011;975;48.760;9.152;2022-12-07T06:02:06;7.28;;;3.92;;
1949;SDS011;975;48.760;9.152;2022-12-07T06:04:54;6.78;;;3.72;;
1949;SDS011;975;48.760;9.152;2022-12-07T06:07:41;5.82;;;3.22;;
1949;SDS011;975;48.760;9.152;2022-12-07T06:10:31;6.13;;;3.15;;
1949;SDS011;975;48.760;9.152;2022-12-07T06:13:18;6.10;;;3.40;;
1949;SDS011;975;48.760;9.152;2022-12-07T06:16:05;5.85;;;3.58;;
1949;SDS011;975;48.760;9.152;2022-12-07T06:18:53;10.57;;;3.33;;
1949;SDS011;975;48.760;9.152;2022-12-07T06:21:41;7.43;;;3.63;;
1949;SDS011;975;48.760;9.152;2022-12-07T06:24:29;9.02;;;3.78;;
1949;SDS011;975;48.760;9.152;2022-12-07T06:27:18;8.00;;;3.85;;
1949;SDS011;975;48.760;9.152;2022-12-07T06:30:06;9.98;;;4.05;;
1949;SDS011;975;48.760;9.152;2022-12-07T06:32:54;7.70;;;3.30;;
1949;SDS011;975;48.760;9.152;2022-12-07T06:35:42;10.02;;;4.18;;
1949;SDS011;975;48.760;9.152;2022-12-07T06:38:30;8.50;;;3.67;;
1949;SDS011;975;48.760;9.152;2022-12-07T06:41:17;10.70;;;4.18;;
1949;SDS011;975;48.760;9.152;2022-12-07T06:44:07;10.65;;;4.10;;
1949;SDS011;975;48.760;9.152;2022-12-07T06:46:54;11.57;;;4.70;;
1949;SDS011;975;48.760;9.152;2022-12-07T06:49:42;9.98;;;4.07;;
1949;SDS011;975;48.760;9.152;2022-12-07T06:52:30;8.63;;;3.53;;
1949;SDS011;975;48.760;9.152;2022-12-07T06:55:18;5.20;;;3.00;;
1949;SDS011;975;48.760;9.152;2022-12-07T06:58:06;6.95;;;3.85;;
1949;SDS011;975;48.760;9.152;2022-12-07T07:00:55;8.02;;;3.88;;
1949;SDS011;975;48.760;9.152;2022-12-07T07:03:43;7.72;;;3.03;;
1949;SDS011;975;48.760;9.152;2022-12-07T07:06:31;10.02;;;4.25;;
1949;SDS011;975;48.760;9.152;2022-12-07T07:09:19;6.78;;;3.05;;
1949;SDS011;975;48.760;9.152;2022-12-07T07:12:06;8.27;;;3.67;;
1949;SDS011;975;48.760;9.152;2022-12-07T07:14:54;8.48;;;4.03;;
1949;SDS011;975;48.760;9.152;2022-12-07T07:17:43;8.40;;;3.70;;
1949;SDS011;975;48.760;9.152;2022-12-07T07:20:31;7.25;;;3.80;;
1949;SDS011;975;48.760;9.152;2022-12-07T07:23:19;10.77;;;3.60;;
1949;SDS011;975;48.760;9.152;2022-12-07T07:26:07;8.20;;;3.85;;
1949;SDS011;975;48.760;9.152;2022-12-07T07:28:55;8.50;;;3.90;;
1949;SDS011;975;48.760;9.152;2022-12-07T07:31:42;10.50;;;4.72;;
1949;SDS011;975;48.760;9.152;2022-12-07T07:34:31;8.15;;;3.78;;
1949;SDS011;975;48.760;9.152;2022-12-07T07:37:19;10.05;;;4.20;;
1949;SDS011;975;48.760;9.152;2022-12-07T07:40:07;11.07;;;5.25;;
1949;SDS011;975;48.760;9.152;2022-12-07T07:42:56;12.15;;;5.25;;
1949;SDS011;975;48.760;9.152;2022-12-07T07:45:44;10.50;;;4.07;;
1949;SDS011;975;48.760;9.152;2022-12-07T07:48:32;10.63;;;4.20;;
1949;SDS011;975;48.760;9.152;2022-12-07T07:51:21;8.40;;;3.42;;
1949;SDS011;975;48.760;9.152;2022-12-07T07:54:08;9.40;;;4.05;;
1949;SDS011;975;48.760;9.152;2022-12-07T07:56:56;7.72;;;3.50;;
1949;SDS011;975;48.760;9.152;2022-12-07T07:59:44;8.13;;;4.07;;
1949;SDS011;975;48.760;9.152;2022-12-07T08:02:32;8.50;;;3.92;;
1949;SDS011;975;48.760;9.152;2022-12-07T08:05:19;8.23;;;3.30;;
1949;SDS011;975;48.760;9.152;2022-12-07T08:08:08;8.18;;;3.67;;
1949;SDS011;975;48.760;9.152;2022-12-07T08:10:56;11.02;;;4.05;;
1949;SDS011;975;48.760;9.152;2022-12-07T08:13:46;8.80;;;4.57;;
1949;SDS011;975;48.760;9.152;2022-12-07T08:16:34;9.77;;;4.00;;
1949;SDS011;975;48.760;9.152;2022-12-07T08:19:21;8.40;;;4.03;;
1949;SDS011;975;48.760;9.152;2022-12-07T08:22:09;10.13;;;4.68;;
1949;SDS011;975;48.760;9.152;2022-12-07T08:24:58;6.90;;;3.10;;
1949;SDS011;975;48.760;9.152;2022-12-07T08:27:46;11.98;;;3.58;;
1949;SDS011;975;48.760;9.152;2022-12-07T08:30:34;10.82;;;4.32;;
1949;SDS011;975;48.760;9.152;2022-12-07T08:33:21;7.72;;;4.15;;
1949;SDS011;975;48.760;9.152;2022-12-07T08:36:11;8.20;;;3.55;;
1949;SDS011;975;48.760;9.152;2022-12-07T08:38:59;8.43;;;3.13;;
1949;SDS011;975;48.760;9.152;2022-12-07T08:41:48;8.60;;;3.78;;
1949;SDS011;975;48.760;9.152;2022-12-07T08:44:35;7.78;;;4.00;;
1949;SDS011;975;48.760;9.152;2022-12-07T08:47:23;8.48;;;4.20;;
1949;SDS011;975;48.760;9.152;2022-12-07T08:50:12;9.07;;;4.10;;
1949;SDS011;975;48.760;9.152;2022-12-07T08:53:00;7.80;;;3.40;;
1949;SDS011;975;48.760;9.152;2022-12-07T08:55:48;9.60;;;3.58;;
1949;SDS011;975;48.760;9.152;2022-12-07T08:58:37;8.50;;;3.53;;
1949;SDS011;975;48.760;9.152;2022-12-07T09:01:25;8.32;;;4.18;;
1949;SDS011;975;48.760;9.152;2022-12-07T09:04:13;7.40;;;4.10;;
1949;SDS011;975;48.760;9.152;2022-12-07T09:07:01;6.63;;;3.35;;
1949;SDS011;975;48.760;9.152;2022-12-07T09:09:49;8.80;;;2.58;;
1949;SDS011;975;48.760;9.152;2022-12-07T09:12:37;9.30;;;4.18;;
1949;SDS011;975;48.760;9.152;2022-12-07T09:15:26;6.55;;;3.08;;
1949;SDS011;975;48.760;9.152;2022-12-07T09:18:14;7.07;;;3.17;;
1949;SDS011;975;48.760;9.152;2022-12-07T09:21:02;5.85;;;2.75;;
1949;SDS011;975;48.760;9.152;2022-12-07T09:23:49;7.50;;;3.38;;
1949;SDS011;975;48.760;9.152;2022-12-07T09:26:37;5.63;;;2.60;;
1949;SDS011;975;48.760;9.152;2022-12-07T09:29:26;5.07;;;2.60;;
1949;SDS011;975;48.760;9.152;2022-12-07T09:32:15;7.72;;;3.22;;
1949;SDS011;975;48.760;9.152;2022-12-07T09:35:02;4.38;;;2.50;;
1949;SDS011;975;48.760;9.152;2022-12-07T09:37:50;6.70;;;3.15;;
1949;SDS011;975;48.760;9.152;2022-12-07T09:40:38;6.38;;;2.92;;
1949;SDS011;975;48.760;9.152;2022-12-07T09:43:28;5.32;;;2.67;;
1949;SDS011;975;48.760;9.152;2022-12-07T09:46:16;5.63;;;2.88;;
1949;SDS011;975;48.760;9.152;2022-12-07T09:49:06;5.45;;;2.63;;
1949;SDS011;975;48.760;9.152;2022-12-07T09:52:00;7.32;;;2.85;;
1949;SDS011;975;48.760;9.152;2022-12-07T09:54:49;5.13;;;2.70;;
1949;SDS011;975;48.760;9.152;2022-12-07T09:57:37;8.60;;;3.13;;
1949;SDS011;975;48.760;9.152;2022-12-07T10:00:25;6.78;;;2.88;;
1949;SDS011;975;48.760;9.152;2022-12-07T10:03:14;6.07;;;2.70;;
1949;SDS011;975;48.760;9.152;2022-12-07T10:06:03;3.88;;;2.33;;
1949;SDS011;975;48.760;9.152;2022-12-07T10:08:51;7.32;;;2.65;;
1949;SDS011;975;48.760;9.152;2022-12-07T10:14:52;6.10;;;2.67;;
1949;SDS011;975;48.760;9.152;2022-12-07T10:17:41;8.25;;;2.70;;
1949;SDS011;975;48.760;9.152;2022-12-07T10:20:34;5.70;;;2.60;;
1949;SDS011;975;48.760;9.152;2022-12-07T10:23:23;5.80;;;2.50;;
1949;SDS011;975;48.760;9.152;2022-12-07T10:26:25;4.78;;;2.30;;
1949;SDS011;975;48.760;9.152;2022-12-07T10:29:14;5.07;;;1.88;;
1949;SDS011;975;48.760;9.152;2022-12-07T10:32:04;5.45;;;2.15;;
1949;SDS011;975;48.760;9.152;2022-12-07T10:34:54;3.45;;;2.10;;
1949;SDS011;975;48.760;9.152;2022-12-07T10:37:59;3.85;;;2.08;;
1949;SDS011;975;48.760;9.152;2022-12-07T10:40:48;4.05;;;2.17;;
1949;SDS011;975;48.760;9.152;2022-12-07T10:43:50;2.72;;;1.50;;
1949;SDS011;975;48.760;9.152;2022-12-07T10:46:51;3.50;;;2.05;;
1949;SDS011;975;48.760;9.152;2022-12-07T10:53:08;4.03;;;2.10;;
1949;SDS011;975;48.760;9.152;2022-12-07T10:56:09;3.22;;;2.03;;
1949;SDS011;975;48.760;9.152;2022-12-07T10:59:06;5.55;;;2.30;;
1949;SDS011;975;48.760;9.152;2022-12-07T11:01:58;5.90;;;2.63;;
1949;SDS011;975;48.760;9.152;2022-12-07T11:04:53;5.10;;;1.98;;
1949;SDS011;975;48.760;9.152;2022-12-07T11:07:45;2.33;;;1.65;;
1949;SDS011;975;48.760;9.152;2022-12-07T11:10:37;4.57;;;2.17;;
1949;SDS011;975;48.760;9.152;2022-12-07T11:13:29;4.68;;;1.73;;
1949;SDS011;975;48.760;9.152;2022-12-07T11:16:28;4.60;;;2.13;;
1949;SDS011;975;48.760;9.152;2022-12-07T11:19:22;3.53;;;1.60;;
1949;SDS011;975;48.760;9.152;2022-12-07T11:22:13;2.47;;;1.58;;
1949;SDS011;975;48.760;9.152;2022-12-07T11:25:13;3.08;;;1.65;;
1949;SDS011;975;48.760;9.152;2022-12-07T11:28:07;5.13;;;1.90;;
1949;SDS011;975;48.760;9.152;2022-12-07T11:31:05;3.28;;;2.00;;
1949;SDS011;975;48.760;9.152;2022-12-07T11:33:56;4.18;;;2.08;;
1949;SDS011;975;48.760;9.152;2022-12-07T11:36:46;2.53;;;1.38;;
1949;SDS011;975;48.760;9.152;2022-12-07T11:39:35;2.40;;;1.40;;
1949;SDS011;975;48.760;9.152;2022-12-07T11:42:25;3.42;;;1.50;;
1949;SDS011;975;48.760;9.152;2022-12-07T11:45:14;1.95;;;1.23;;
1949;SDS011;975;48.760;9.152;2022-12-07T11:48:04;3.38;;;1.48;;
1949;SDS011;975;48.760;9.152;2022-12-07T11:50:54;2.67;;;1.55;;
1949;SDS011;975;48.760;9.152;2022-12-07T11:53:45;2.72;;;1.67;;
1949;SDS011;975;48.760;9.152;2022-12-07T11:56:34;3.13;;;1.70;;
1949;SDS011;975;48.760;9.152;2022-12-07T11:59:23;2.08;;;1.33;;
1949;SDS011;975;48.760;9.152;2022-12-07T12:02:15;2.55;;;1.40;;
1949;SDS011;975;48.760;9.152;2022-12-07T12:05:07;5.30;;;1.77;;
1949;SDS011;975;48.760;9.152;2022-12-07T12:08:02;2.60;;;1.77;;
1949;SDS011;975;48.760;9.152;2022-12-07T12:10:55;2.65;;;1.65;;
1949;SDS011;975;48.760;9.152;2022-12-07T12:14:02;2.97;;;1.45;;
1949;SDS011;975;48.760;9.152;2022-12-07T12:20:04;2.53;;;1.35;;
1949;SDS011;975;48.760;9.152;2022-12-07T12:22:55;1.95;;;1.02;;
1949;SDS011;975;48.760;9.152;2022-12-07T12:25:45;4.05;;;2.10;;
1949;SDS011;975;48.760;9.152;2022-12-07T12:28:35;3.60;;;2.17;;
1949;SDS011;975;48.760;9.152;2022-12-07T12:31:31;3.38;;;2.10;;
1949;SDS011;975;48.760;9.152;2022-12-07T12:34:31;4.22;;;2.40;;
1949;SDS011;975;48.760;9.152;2022-12-07T12:40:42;6.95;;;2.60;;
1949;SDS011;975;48.760;9.152;2022-12-07T12:43:47;5.78;;;2.75;;
1949;SDS011;975;48.760;9.152;2022-12-07T12:46:47;8.13;;;2.95;;
1949;SDS011;975;48.760;9.152;2022-12-07T12:49:36;5.20;;;2.70;;
1949;SDS011;975;48.760;9.152;2022-12-07T12:55:46;6.53;;;3.00;;
1949;SDS011;975;48.760;9.152;2022-12-07T12:58:41;5.88;;;2.75;;
1949;SDS011;975;48.760;9.152;2022-12-07T13:01:41;8.32;;;2.90;;
1949;SDS011;975;48.760;9.152;2022-12-07T13:04:34;5.15;;;2.78;;
1949;SDS011;975;48.760;9.152;2022-12-07T13:10:34;3.40;;;2.30;;
1949;SDS011;975;48.760;9.152;2022-12-07T13:13:31;6.57;;;2.72;;
1949;SDS011;975;48.760;9.152;2022-12-07T13:16:39;4.43;;;2.25;;
1949;SDS011;975;48.760;9.152;2022-12-07T13:22:54;3.72;;;2.17;;
1949;SDS011;975;48.760;9.152;2022-12-07T13:25:48;4.13;;;2.13;;
1949;SDS011;975;48.760;9.152;2022-12-07T13:28:39;4.18;;;1.80;;
1949;SDS011;975;48.760;9.152;2022-12-07T13:31:30;3.25;;;2.00;;
1949;SDS011;975;48.760;9.152;2022-12-07T13:34:30;3.63;;;1.88;;
1949;SDS011;975;48.760;9.152;2022-12-07T13:37:21;4.75;;;2.00;;
1949;SDS011;975;48.760;9.152;2022-12-07T13:40:15;4.60;;;2.40;;
1949;SDS011;975;48.760;9.152;2022-12-07T13:43:04;6.28;;;1.80;;
1949;SDS011;975;48.760;9.152;2022-12-07T13:46:01;5.28;;;1.83;;
1949;SDS011;975;48.760;9.152;2022-12-07T13:48:49;3.65;;;1.70;;
1949;SDS011;975;48.760;9.152;2022-12-07T13:51:37;2.80;;;1.70;;
1949;SDS011;975;48.760;9.152;2022-12-07T13:54:25;3.08;;;1.98;;
1949;SDS011;975;48.760;9.152;2022-12-07T13:57:13;3.15;;;1.98;;
1949;SDS011;975;48.760;9.152;2022-12-07T14:00:01;3.53;;;1.85;;
1949;SDS011;975;48.760;9.152;2022-12-07T14:02:56;4.45;;;1.88;;
1949;SDS011;975;48.760;9.152;2022-12-07T14:05:45;3.22;;;1.88;;
1949;SDS011;975;48.760;9.152;2022-12-07T14:08:32;4.57;;;1.80;;
1949;SDS011;975;48.760;9.152;2022-12-07T14:11:20;2.45;;;1.75;;
1949;SDS011;975;48.760;9.152;2022-12-07T14:14:10;2.92;;;1.95;;
1949;SDS011;975;48.760;9.152;2022-12-07T14:17:02;3.28;;;1.75;;
1949;SDS011;975;48.760;9.152;2022-12-07T14:20:00;3.78;;;1.90;;
1949;SDS011;975;48.760;9.152;2022-12-07T14:22:53;5.38;;;1.98;;
1949;SDS011;975;48.760;9.152;2022-12-07T14:25:45;5.47;;;1.92;;
1949;SDS011;975;48.760;9.152;2022-12-07T14:28:34;3.40;;;2.15;;
1949;SDS011;975;48.760;9.152;2022-12-07T14:31:23;6.80;;;2.88;;
1949;SDS011;975;48.760;9.152;2022-12-07T14:34:12;5.13;;;2.60;;
1949;SDS011;975;48.760;9.152;2022-12-07T14:37:01;3.88;;;1.90;;
1949;SDS011;975;48.760;9.152;2022-12-07T14:39:48;4.93;;;2.22;;
1949;SDS011;975;48.760;9.152;2022-12-07T14:42:36;3.17;;;2.20;;
1949;SDS011;975;48.760;9.152;2022-12-07T14:45:25;4.13;;;2.00;;
1949;SDS011;975;48.760;9.152;2022-12-07T14:48:14;6.97;;;2.35;;
1949;SDS011;975;48.760;9.152;2022-12-07T14:51:02;2.72;;;1.92;;
1949;SDS011;975;48.760;9.152;2022-12-07T14:53:51;4.35;;;2.42;;
1949;SDS011;975;48.760;9.152;2022-12-07T14:56:39;5.38;;;2.53;;
1949;SDS011;975;48.760;9.152;2022-12-07T14:59:27;4.70;;;2.83;;
1949;SDS011;975;48.760;9.152;2022-12-07T15:02:15;9.30;;;2.92;;
1949;SDS011;975;48.760;9.152;2022-12-07T15:05:03;7.35;;;3.08;;
1949;SDS011;975;48.760;9.152;2022-12-07T15:07:51;6.72;;;2.70;;
1949;SDS011;975;48.760;9.152;2022-12-07T15:10:40;5.03;;;2.72;;
1949;SDS011;975;48.760;9.152;2022-12-07T15:13:28;5.50;;;2.70;;
1949;SDS011;975;48.760;9.152;2022-12-07T15:16:33;4.80;;;2.58;;
1949;SDS011;975;48.760;9.152;2022-12-07T15:19:22;5.70;;;2.97;;
1949;SDS011;975;48.760;9.152;2022-12-07T15:22:11;6.40;;;2.90;;
1949;SDS011;975;48.760;9.152;2022-12-07T15:24:59;10.93;;;3.58;;
1949;SDS011;975;48.760;9.152;2022-12-07T15:27:48;8.02;;;3.03;;
1949;SDS011;975;48.760;9.152;2022-12-07T15:30:36;6.82;;;3.20;;
1949;SDS011;975;48.760;9.152;2022-12-07T15:33:24;7.20;;;3.65;;
1949;SDS011;975;48.760;9.152;2022-12-07T15:36:19;5.22;;;2.63;;
1949;SDS011;975;48.760;9.152;2022-12-07T15:39:08;6.18;;;3.03;;
1949;SDS011;975;48.760;9.152;2022-12-07T15:41:55;5.18;;;2.65;;
1949;SDS011;975;48.760;9.152;2022-12-07T15:44:45;4.53;;;2.53;;
1949;SDS011;975;48.760;9.152;2022-12-07T15:47:52;5.78;;;2.60;;
1949;SDS011;975;48.760;9.152;2022-12-07T15:50:41;4.63;;;2.22;;
1949;SDS011;975;48.760;9.152;2022-12-07T15:53:28;7.28;;;2.90;;
1949;SDS011;975;48.760;9.152;2022-12-07T15:56:16;7.10;;;3.45;;
1949;SDS011;975;48.760;9.152;2022-12-07T15:59:04;4.50;;;2.33;;
1949;SDS011;975;48.760;9.152;2022-12-07T16:01:53;6.82;;;3.13;;
1949;SDS011;975;48.760;9.152;2022-12-07T16:04:41;7.15;;;3.40;;
1949;SDS011;975;48.760;9.152;2022-12-07T16:07:28;8.88;;;2.97;;
1949;SDS011;975;48.760;9.152;2022-12-07T16:10:16;5.47;;;3.33;;
1949;SDS011;975;48.760;9.152;2022-12-07T16:13:04;7.68;;;3.55;;
1949;SDS011;975;48.760;9.152;2022-12-07T16:15:52;8.60;;;3.70;;
1949;SDS011;975;48.760;9.152;2022-12-07T16:18:41;8.18;;;3.53;;
1949;SDS011;975;48.760;9.152;2022-12-07T16:21:29;8.77;;;3.50;;
1949;SDS011;975;48.760;9.152;2022-12-07T16:24:17;11.70;;;4.38;;
1949;SDS011;975;48.760;9.152;2022-12-07T16:27:04;11.00;;;4.28;;
1949;SDS011;975;48.760;9.152;2022-12-07T16:29:52;10.52;;;4.10;;
1949;SDS011;975;48.760;9.152;2022-12-07T16:32:40;11.18;;;4.93;;
1949;SDS011;975;48.760;9.152;2022-12-07T16:35:30;9.85;;;4.55;;
1949;SDS011;975;48.760;9.152;2022-12-07T16:38:17;12.63;;;5.13;;
1949;SDS011;975;48.760;9.152;2022-12-07T16:41:06;13.65;;;5.57;;
1949;SDS011;975;48.760;9.152;2022-12-07T16:43:54;11.75;;;5.03;;
1949;SDS011;975;48.760;9.152;2022-12-07T16:46:42;12.02;;;5.55;;
1949;SDS011;975;48.760;9.152;2022-12-07T16:49:30;12.32;;;4.85;;
1949;SDS011;975;48.760;9.152;2022-12-07T16:52:19;11.65;;;4.78;;
1949;SDS011;975;48.760;9.152;2022-12-07T16:55:07;11.65;;;5.20;;
1949;SDS011;975;48.760;9.152;2022-12-07T16:57:55;13.00;;;5.63;;
1949;SDS011;975;48.760;9.152;2022-12-07T17:00:43;15.63;;;5.68;;
1949;SDS011;975;48.760;9.152;2022-12-07T17:03:31;13.68;;;5.95;;
1949;SDS011;975;48.760;9.152;2022-12-07T17:06:20;14.38;;;6.25;;
1949;SDS011;975;48.760;9.152;2022-12-07T17:09:09;14.30;;;5.65;;
1949;SDS011;975;48.760;9.152;2022-12-07T17:11:57;12.52;;;6.20;;
1949;SDS011;975;48.760;9.152;2022-12-07T17:14:45;17.25;;;6.68;;
1949;SDS011;975;48.760;9.152;2022-12-07T17:17:51;13.63;;;6.35;;
1949;SDS011;975;48.760;9.152;2022-12-07T17:20:39;12.57;;;5.82;;
1949;SDS011;975;48.760;9.152;2022-12-07T17:23:27;13.00;;;6.55;;
1949;SDS011;975;48.760;9.152;2022-12-07T17:26:18;13.65;;;6.32;;
1949;SDS011;975;48.760;9.152;2022-12-07T17:29:06;16.52;;;6.97;;
1949;SDS011;975;48.760;9.152;2022-12-07T17:31:54;14.65;;;6.10;;
1949;SDS011;975;48.760;9.152;2022-12-07T17:34:42;12.60;;;5.50;;
1949;SDS011;975;48.760;9.152;2022-12-07T17:37:30;12.88;;;5.47;;
1949;SDS011;975;48.760;9.152;2022-12-07T17:40:18;20.15;;;6.15;;
1949;SDS011;975;48.760;9.152;2022-12-07T17:43:07;15.32;;;5.57;;
1949;SDS011;975;48.760;9.152;2022-12-07T17:45:55;15.20;;;6.45;;
1949;SDS011;975;48.760;9.152;2022-12-07T17:48:42;13.85;;;6.10;;
1949;SDS011;975;48.760;9.152;2022-12-07T17:51:30;12.23;;;6.13;;
1949;SDS011;975;48.760;9.152;2022-12-07T17:54:35;11.40;;;6.03;;
1949;SDS011;975;48.760;9.152;2022-12-07T17:57:23;13.68;;;6.75;;
1949;SDS011;975;48.760;9.152;2022-12-07T18:00:13;15.95;;;6.22;;
1949;SDS011;975;48.760;9.152;2022-12-07T18:03:01;12.80;;;5.72;;
1949;SDS011;975;48.760;9.152;2022-12-07T18:05:49;10.52;;;4.78;;
1949;SDS011;975;48.760;9.152;2022-12-07T18:08:36;14.85;;;6.53;;
1949;SDS011;975;48.760;9.152;2022-12-07T18:11:24;10.07;;;4.63;;
1949;SDS011;975;48.760;9.152;2022-12-07T18:14:12;12.13;;;5.50;;
1949;SDS011;975;48.760;9.152;2022-12-07T18:17:02;21.85;;;8.40;;
1949;SDS011;975;48.760;9.152;2022-12-07T18:19:50;11.93;;;5.38;;